createdAt,value
2018-09-04T16:36:30.545Z,48.30
2018-09-04T16:38:58.731Z,47.90
2018-09-04T16:41:27.009Z,48.80
2018-09-04T16:43:55.753Z,49.00
2018-09-04T16:46:23.938Z,49.10
2018-09-04T16:48:52.882Z,49.10
2018-09-04T16:51:21.131Z,49.10
2018-09-04T16:53:49.308Z,49.50
2018-09-04T16:56:24.336Z,49.40
2018-09-04T16:58:52.592Z,49.80
2018-09-04T17:01:20.788Z,49.40
2018-09-04T17:03:49.007Z,49.30
2018-09-04T17:06:17.174Z,49.60
2018-09-04T17:08:45.300Z,49.10
2018-09-04T17:11:13.449Z,49.20
2018-09-04T17:13:41.668Z,49.20
2018-09-04T17:16:09.871Z,49.50
2018-09-04T17:18:38.095Z,49.80
2018-09-04T17:21:06.283Z,50.40
2018-09-04T17:23:34.532Z,50.30
2018-09-04T17:26:02.896Z,51.30
2018-09-04T17:28:30.993Z,50.70
2018-09-04T17:30:59.193Z,51.00
2018-09-04T17:33:27.360Z,50.90
2018-09-04T17:35:55.531Z,51.00
2018-09-04T17:38:23.783Z,51.50
2018-09-04T17:40:51.974Z,51.70
2018-09-04T17:43:20.133Z,51.70
2018-09-04T17:45:48.441Z,52.10
2018-09-04T17:48:16.709Z,53.10
2018-09-04T17:50:44.869Z,52.50
2018-09-04T17:53:13.133Z,52.70
2018-09-04T17:55:41.305Z,53.50
2018-09-04T17:58:09.561Z,53.40
2018-09-04T18:00:37.764Z,54.10
2018-09-04T18:03:06.028Z,53.60
2018-09-04T18:05:34.253Z,53.70
2018-09-04T18:08:02.468Z,53.90
2018-09-04T18:10:30.637Z,54.20
2018-09-04T18:12:58.953Z,54.80
2018-09-04T18:15:27.161Z,55.50
2018-09-04T18:17:55.470Z,56.20
2018-09-04T18:20:23.715Z,56.20
2018-09-04T18:22:52.164Z,56.50
2018-09-04T18:25:20.395Z,58.00
2018-09-04T18:27:48.598Z,58.10
2018-09-04T18:30:16.833Z,58.10
2018-09-04T18:32:45.166Z,58.60
2018-09-04T18:35:13.322Z,58.40
2018-09-04T18:37:41.567Z,58.50
2018-09-04T18:40:09.731Z,58.70
2018-09-04T18:42:37.958Z,59.60
2018-09-04T18:45:06.335Z,59.70
2018-09-04T18:47:34.503Z,60.40
2018-09-04T18:50:02.912Z,61.00
2018-09-04T18:52:31.080Z,61.40
2018-09-04T18:54:59.373Z,61.80
2018-09-04T18:57:27.608Z,62.20
2018-09-04T18:59:55.805Z,62.50
2018-09-04T19:02:24.015Z,62.70
2018-09-04T19:04:52.379Z,62.80
2018-09-04T19:07:20.607Z,62.90
2018-09-04T19:09:48.844Z,63.00
2018-09-04T19:12:17.152Z,63.20
2018-09-04T19:14:45.292Z,63.70
2018-09-04T19:17:13.590Z,63.80
2018-09-04T19:19:41.913Z,64.20
2018-09-04T19:22:10.120Z,64.50
2018-09-04T19:24:38.792Z,64.50
2018-09-04T19:27:07.118Z,64.90
2018-09-04T19:29:35.414Z,65.30
2018-09-04T19:32:03.727Z,65.40
2018-09-04T19:34:31.922Z,66.30
2018-09-04T19:37:00.191Z,66.40
2018-09-04T19:39:28.396Z,66.80
2018-09-04T19:41:56.792Z,66.50
2018-09-04T19:44:25.028Z,66.40
2018-09-04T19:46:53.308Z,66.60
2018-09-04T19:49:21.628Z,66.40
2018-09-04T19:51:50.283Z,67.30
2018-09-04T19:54:18.622Z,67.30
2018-09-04T19:56:46.891Z,67.20
2018-09-04T19:59:15.203Z,67.40
2018-09-04T20:01:43.499Z,67.50
2018-09-04T20:04:11.896Z,68.00
2018-09-04T20:06:40.228Z,68.20
2018-09-04T20:09:08.560Z,68.30
2018-09-04T20:11:37.012Z,68.20
2018-09-04T20:14:04.675Z,68.60
2018-09-04T20:16:32.945Z,68.40
2018-09-04T20:19:01.143Z,68.70
2018-09-04T20:21:29.362Z,69.40
2018-09-04T20:23:57.548Z,70.30
2018-09-04T20:26:25.804Z,70.60
2018-09-04T20:28:53.996Z,70.70
2018-09-04T20:31:22.257Z,70.40
2018-09-04T20:33:50.467Z,70.40
2018-09-04T20:36:18.728Z,70.20
2018-09-04T20:38:47.026Z,70.10
2018-09-04T20:41:15.413Z,70.90
2018-09-04T20:43:43.631Z,70.20
2018-09-04T20:46:11.920Z,70.50
2018-09-04T20:48:40.177Z,70.70
2018-09-04T20:51:08.442Z,71.40
2018-09-04T20:53:36.757Z,72.40
2018-09-04T20:56:05.017Z,72.80
2018-09-04T20:58:50.026Z,72.70
2018-09-04T21:01:35.366Z,72.70
2018-09-04T21:04:20.705Z,73.50
2018-09-04T21:06:52.898Z,73.30
2018-09-04T21:09:34.308Z,73.80
2018-09-04T21:12:02.629Z,74.10
2018-09-04T21:14:30.843Z,74.10
2018-09-04T21:16:59.188Z,74.30
2018-09-04T21:19:27.468Z,74.60
2018-09-04T21:21:55.764Z,74.90
2018-09-04T21:24:23.990Z,75.30
2018-09-04T21:26:52.184Z,75.00
2018-09-04T21:29:20.365Z,75.10
2018-09-04T21:31:48.585Z,75.20
2018-09-04T21:34:16.770Z,75.20
2018-09-04T21:36:44.904Z,75.30
2018-09-04T21:39:13.085Z,75.30
2018-09-04T21:41:41.426Z,75.10
2018-09-04T21:44:09.676Z,75.10
2018-09-04T21:46:37.858Z,75.00
2018-09-04T21:49:06.106Z,75.40
2018-09-04T21:51:34.345Z,75.70
2018-09-04T21:54:02.619Z,75.50
2018-09-04T21:56:30.805Z,75.50
2018-09-04T21:58:58.996Z,75.70
2018-09-04T22:01:27.192Z,75.70
2018-09-04T22:03:55.992Z,75.90
2018-09-04T22:06:24.172Z,76.10
2018-09-04T22:08:53.079Z,76.20
2018-09-04T22:11:21.398Z,76.40
2018-09-04T22:13:49.554Z,76.90
2018-09-04T22:16:17.756Z,76.90
2018-09-04T22:18:46.097Z,76.70
2018-09-04T22:21:14.271Z,77.30
2018-09-04T22:23:42.542Z,77.40
2018-09-04T22:26:10.715Z,77.60
2018-09-04T22:28:38.893Z,77.40
2018-09-04T22:31:07.139Z,77.40
2018-09-04T22:33:35.273Z,77.80
2018-09-04T22:36:04.847Z,78.00
2018-09-04T22:38:32.995Z,78.20
2018-09-04T22:41:01.229Z,78.70
2018-09-04T22:43:29.370Z,78.80
2018-09-04T22:45:57.602Z,78.40
2018-09-04T22:48:26.127Z,79.20
2018-09-04T22:51:00.726Z,79.60
2018-09-04T22:53:28.892Z,79.60
2018-09-04T22:55:57.105Z,79.40
2018-09-04T22:58:25.195Z,79.70
2018-09-04T23:00:53.358Z,79.10
2018-09-04T23:03:21.525Z,79.20
2018-09-04T23:05:53.738Z,79.40
2018-09-04T23:08:22.445Z,79.20
2018-09-04T23:10:50.610Z,79.40
2018-09-04T23:13:18.759Z,79.90
2018-09-04T23:15:46.880Z,80.30
2018-09-04T23:18:15.110Z,81.00
2018-09-04T23:20:43.316Z,80.90
2018-09-04T23:23:11.447Z,80.80
2018-09-04T23:25:39.574Z,81.70
2018-09-04T23:28:07.757Z,82.40
2018-09-04T23:30:35.923Z,82.40
2018-09-04T23:33:04.221Z,81.70
2018-09-04T23:35:32.309Z,81.40
2018-09-04T23:38:00.464Z,81.60
2018-09-04T23:40:28.656Z,80.80
2018-09-04T23:42:56.832Z,80.80
2018-09-04T23:45:24.951Z,80.80
2018-09-04T23:47:53.081Z,81.50
2018-09-04T23:50:21.380Z,81.90
2018-09-04T23:52:49.545Z,81.50
2018-09-04T23:55:17.693Z,81.40
2018-09-04T23:57:45.825Z,81.40
